createdAt,value
2023-03-12T00:02:45.667Z,-1.01
2023-03-12T00:05:48.762Z,-1.08
2023-03-12T00:08:50.853Z,-1.15
2023-03-12T00:11:52.642Z,-1.18
2023-03-12T00:14:55.683Z,-1.17
2023-03-12T00:17:57.309Z,-1.22
2023-03-12T00:21:00.672Z,-1.30
2023-03-12T00:24:02.456Z,-1.33
2023-03-12T00:27:04.104Z,-1.33
2023-03-12T00:30:06.783Z,-1.32
2023-03-12T00:33:08.561Z,-1.36
2023-03-12T00:36:12.276Z,-1.30
2023-03-12T00:39:13.910Z,-1.29
2023-03-12T00:42:15.668Z,-1.34
2023-03-12T00:45:17.317Z,-1.41
2023-03-12T00:48:19.072Z,-1.39
2023-03-12T00:51:22.318Z,-1.43
2023-03-12T00:54:24.134Z,-1.54
2023-03-12T00:57:25.809Z,-1.62
2023-03-12T01:00:28.015Z,-1.62
2023-03-12T01:03:29.959Z,-1.67
2023-03-12T01:06:33.013Z,-1.68
2023-03-12T01:09:34.595Z,-1.68
2023-03-12T01:12:37.110Z,-1.70
2023-03-12T01:15:38.814Z,-1.71
2023-03-12T01:18:40.746Z,-1.64
2023-03-12T01:21:43.796Z,-1.61
2023-03-12T01:24:45.631Z,-1.58
2023-03-12T01:27:47.215Z,-1.56
2023-03-12T01:30:49.066Z,-1.62
2023-03-12T01:33:51.280Z,-1.58
2023-03-12T01:36:58.050Z,-1.48
2023-03-12T01:40:00.219Z,-1.39
2023-03-12T01:43:22.545Z,-1.35
2023-03-12T01:46:25.986Z,-1.36
2023-03-12T01:49:30.078Z,-1.31
2023-03-12T01:52:36.764Z,-1.32
2023-03-12T01:55:38.990Z,-1.31
2023-03-12T01:58:43.063Z,-1.30
2023-03-12T02:01:45.145Z,-1.35
2023-03-12T02:04:47.886Z,-1.34
2023-03-12T02:07:51.680Z,-1.41
2023-03-12T02:10:53.933Z,-1.41
2023-03-12T02:13:55.815Z,-1.35
2023-03-12T02:16:57.729Z,-1.35
2023-03-12T02:20:08.064Z,-1.35
2023-03-12T02:23:17.314Z,-1.39
2023-03-12T02:26:25.286Z,-1.42
2023-03-12T02:29:38.303Z,-1.50
2023-03-12T02:36:40.283Z,-1.34
2023-03-12T02:39:43.179Z,-1.33
2023-03-12T02:42:46.619Z,-1.33
2023-03-12T02:45:48.555Z,-1.31
2023-03-12T02:48:52.101Z,-1.28
2023-03-12T02:51:54.857Z,-1.27
2023-03-12T02:54:56.669Z,-1.23
2023-03-12T02:57:59.705Z,-1.27
2023-03-12T03:01:02.037Z,-1.30
2023-03-12T03:04:04.718Z,-1.33
2023-03-12T03:07:06.518Z,-1.35
2023-03-12T03:10:09.174Z,-1.36
2023-03-12T03:13:12.526Z,-1.38
2023-03-12T03:16:14.482Z,-1.36
2023-03-12T03:19:16.686Z,-1.34
2023-03-12T03:22:22.122Z,-1.33
2023-03-12T03:25:24.187Z,-1.38
2023-03-12T03:28:28.085Z,-1.39
2023-03-12T03:31:30.597Z,-1.45
2023-03-12T03:34:33.311Z,-1.54
2023-03-12T03:37:35.229Z,-1.68
2023-03-12T03:40:36.996Z,-1.62
2023-03-12T03:43:40.299Z,-1.66
2023-03-12T03:46:41.990Z,-1.81
2023-03-12T03:49:45.570Z,-1.82
2023-03-12T03:52:47.389Z,-1.75
2023-03-12T03:55:49.002Z,-1.65
2023-03-12T03:58:52.384Z,-1.47
2023-03-12T04:01:56.120Z,-1.42
2023-03-12T04:04:59.200Z,-1.38
2023-03-12T04:08:03.356Z,-1.41
2023-03-12T04:11:08.678Z,-1.62
2023-03-12T04:14:11.717Z,-1.68
2023-03-12T04:17:16.288Z,-1.69
2023-03-12T04:20:17.921Z,-1.77
2023-03-12T04:23:19.652Z,-1.76
2023-03-12T04:26:21.329Z,-1.76
2023-03-12T04:29:24.745Z,-1.77
2023-03-12T04:32:27.394Z,-1.81
2023-03-12T04:35:29.227Z,-1.82
2023-03-12T04:38:31.033Z,-1.74
2023-03-12T04:41:33.330Z,-1.76
2023-03-12T04:44:41.802Z,-1.73
2023-03-12T04:47:43.996Z,-1.73
2023-03-12T04:50:46.500Z,-1.72
2023-03-12T04:53:48.477Z,-1.72
2023-03-12T04:56:50.971Z,-1.72
2023-03-12T04:59:56.955Z,-1.74
2023-03-12T05:02:58.959Z,-1.71
2023-03-12T05:06:00.740Z,-1.70
2023-03-12T05:09:04.215Z,-1.68
2023-03-12T05:12:06.595Z,-1.66
2023-03-12T05:15:10.763Z,-1.68
2023-03-12T05:18:12.676Z,-1.66
2023-03-12T05:21:16.308Z,-1.68
2023-03-12T05:24:19.168Z,-1.68
2023-03-12T05:27:21.025Z,-1.70
2023-03-12T05:30:24.221Z,-1.67
2023-03-12T05:33:27.614Z,-1.69
2023-03-12T05:36:29.717Z,-1.71
2023-03-12T05:39:31.735Z,-1.67
2023-03-12T05:42:38.648Z,-1.67
2023-03-12T05:45:43.888Z,-1.70
2023-03-12T05:48:45.674Z,-1.72
2023-03-12T05:51:47.648Z,-1.69
2023-03-12T05:54:49.448Z,-1.65
2023-03-12T05:57:52.192Z,-1.67
2023-03-12T06:00:56.026Z,-1.64
2023-03-12T06:03:58.016Z,-1.60
2023-03-12T06:07:00.429Z,-1.54
2023-03-12T06:10:02.262Z,-1.51
2023-03-12T06:13:05.145Z,-1.45
2023-03-12T06:16:10.973Z,-1.46
2023-03-12T06:19:14.347Z,-1.45
2023-03-12T06:22:18.007Z,-1.41
2023-03-12T06:25:19.780Z,-1.36
2023-03-12T06:28:21.948Z,-1.32
2023-03-12T06:31:25.187Z,-1.18
2023-03-12T06:34:26.711Z,-1.09
2023-03-12T06:37:28.661Z,-1.07
2023-03-12T06:40:30.184Z,-0.92
2023-03-12T06:43:32.552Z,-0.80
2023-03-12T06:46:35.796Z,-0.74
2023-03-12T06:49:38.207Z,-0.66
2023-03-12T06:52:40.595Z,-0.69
2023-03-12T06:55:43.596Z,-0.62
2023-03-12T06:58:45.211Z,-0.50
2023-03-12T07:01:48.314Z,-0.43
2023-03-12T07:04:50.472Z,-0.36
2023-03-12T07:07:52.025Z,-0.30
2023-03-12T07:10:53.836Z,-0.23
2023-03-12T07:13:55.617Z,-0.15
2023-03-12T07:16:59.054Z,-0.09
2023-03-12T07:20:00.834Z,-0.05
2023-03-12T07:23:02.474Z,-0.03
2023-03-12T07:26:04.564Z,0.05
2023-03-12T07:29:06.212Z,0.08
2023-03-12T07:32:09.905Z,0.13
2023-03-12T07:35:11.673Z,0.18
2023-03-12T07:38:13.688Z,0.15
2023-03-12T07:41:15.632Z,0.11
2023-03-12T07:44:17.958Z,0.13
2023-03-12T07:47:24.516Z,0.18
2023-03-12T07:50:26.530Z,0.19
2023-03-12T07:53:28.336Z,0.23
2023-03-12T07:56:30.296Z,0.23
2023-03-12T07:59:32.307Z,0.29
2023-03-12T08:02:35.614Z,0.33
2023-03-12T08:05:37.563Z,0.34
2023-03-12T08:08:41.845Z,0.31
2023-03-12T08:11:43.742Z,0.33
2023-03-12T08:14:46.761Z,0.31
2023-03-12T08:17:49.950Z,0.34
2023-03-12T08:20:52.037Z,0.31
2023-03-12T08:23:53.915Z,0.35
2023-03-12T08:26:56.291Z,0.39
2023-03-12T08:29:58.481Z,0.43
2023-03-12T08:33:01.744Z,0.57
2023-03-12T08:36:04.322Z,0.64
2023-03-12T08:39:06.615Z,0.69
2023-03-12T08:42:08.441Z,0.75
2023-03-12T08:45:11.349Z,0.75
2023-03-12T08:48:14.758Z,0.79
2023-03-12T08:51:17.318Z,0.80
2023-03-12T08:54:19.088Z,0.79
2023-03-12T08:57:20.888Z,0.78
2023-03-12T09:00:22.810Z,0.86
2023-03-12T09:03:26.555Z,0.93
2023-03-12T09:06:28.724Z,0.96
2023-03-12T09:09:30.437Z,0.98
2023-03-12T09:12:32.254Z,0.94
2023-03-12T09:15:34.101Z,0.91
2023-03-12T09:18:39.936Z,1.00
2023-03-12T09:21:41.927Z,0.99
2023-03-12T09:24:43.798Z,0.96
2023-03-12T09:27:46.234Z,1.03
2023-03-12T09:30:47.966Z,0.93
2023-03-12T09:33:51.392Z,0.89
2023-03-12T09:36:53.564Z,0.88
2023-03-12T09:39:55.352Z,0.81
2023-03-12T09:42:58.301Z,0.75
2023-03-12T09:46:00.675Z,0.67
2023-03-12T09:49:06.400Z,0.57
2023-03-12T09:52:14.553Z,0.54
2023-03-12T09:55:17.607Z,0.52
2023-03-12T09:58:22.540Z,0.51
2023-03-12T10:01:29.695Z,0.45
2023-03-12T10:04:56.276Z,0.43
2023-03-12T10:08:22.812Z,0.42
2023-03-12T10:11:32.305Z,0.44
2023-03-12T10:14:40.888Z,0.43
2023-03-12T10:17:47.907Z,0.42
2023-03-12T10:20:53.702Z,0.44
2023-03-12T10:24:05.715Z,0.39
2023-03-12T10:27:11.431Z,0.42
2023-03-12T10:30:16.662Z,0.48
2023-03-12T10:33:19.488Z,0.52
2023-03-12T10:36:25.150Z,0.58
2023-03-12T10:39:26.865Z,0.67
2023-03-12T10:42:30.385Z,0.63
2023-03-12T10:45:35.349Z,0.62
2023-03-12T10:48:37.003Z,0.58
2023-03-12T10:51:53.103Z,0.62
2023-03-12T10:54:54.708Z,0.57
2023-03-12T10:57:57.257Z,0.58
2023-03-12T11:01:02.173Z,0.55
2023-03-12T11:04:15.619Z,0.46
2023-03-12T11:07:21.649Z,0.43
2023-03-12T11:10:25.244Z,0.47
2023-03-12T11:13:29.558Z,0.53
2023-03-12T11:16:32.271Z,0.57
2023-03-12T11:19:36.440Z,0.66
2023-03-12T11:26:01.770Z,0.62
2023-03-12T11:35:49.625Z,0.65
2023-03-12T11:38:55.630Z,0.66
2023-03-12T11:42:11.280Z,0.66
2023-03-12T11:45:17.355Z,0.68
2023-03-12T11:48:24.780Z,0.70
2023-03-12T11:51:34.044Z,0.71
2023-03-12T11:54:47.074Z,0.67
2023-03-12T11:58:07.540Z,0.68
2023-03-12T12:01:11.305Z,0.69
2023-03-12T12:04:37.252Z,0.69
2023-03-12T12:07:45.925Z,0.72
2023-03-12T12:10:52.049Z,0.72
2023-03-12T12:14:02.256Z,0.75
2023-03-12T12:17:10.331Z,0.81
2023-03-12T12:20:18.017Z,0.82
2023-03-12T12:23:26.733Z,0.83
2023-03-12T12:26:33.542Z,0.85
2023-03-12T12:29:49.111Z,0.90
2023-03-12T12:33:01.364Z,0.93
2023-03-12T12:36:03.697Z,0.95
2023-03-12T12:39:08.434Z,0.96
2023-03-12T12:42:15.355Z,0.96
2023-03-12T12:45:18.723Z,0.92
2023-03-12T12:48:22.942Z,1.00
2023-03-12T12:51:27.551Z,1.04
2023-03-12T12:54:34.814Z,1.07
2023-03-12T12:57:39.482Z,1.08
2023-03-12T13:00:46.142Z,1.15
2023-03-12T13:03:48.560Z,1.25
2023-03-12T13:06:54.395Z,1.28
2023-03-12T13:09:57.408Z,1.24
2023-03-12T13:12:59.861Z,1.25
2023-03-12T13:16:19.876Z,1.24
2023-03-12T13:19:24.615Z,1.21
2023-03-12T13:22:30.845Z,1.19
2023-03-12T13:25:50.752Z,1.20
2023-03-12T13:29:11.469Z,1.19
2023-03-12T13:32:33.940Z,1.28
2023-03-12T13:35:39.294Z,1.32
2023-03-12T13:38:53.395Z,1.33
2023-03-12T13:41:56.120Z,1.38
2023-03-12T13:45:11.170Z,1.44
2023-03-12T13:48:14.545Z,1.53
2023-03-12T13:51:19.032Z,1.57
2023-03-12T13:54:23.912Z,1.61
2023-03-12T13:57:30.305Z,1.66
2023-03-12T14:00:36.365Z,1.72
2023-03-12T14:03:40.545Z,1.73
2023-03-12T14:06:53.793Z,1.74
2023-03-12T14:10:00.454Z,1.79
2023-03-12T14:13:09.777Z,1.85
2023-03-12T14:16:22.469Z,1.92
2023-03-12T14:19:35.621Z,1.97
2023-03-12T14:22:39.819Z,1.99
2023-03-12T14:25:43.556Z,2.02
2023-03-12T14:28:55.144Z,1.92
2023-03-12T14:31:58.434Z,2.04
2023-03-12T14:35:17.288Z,2.12
2023-03-12T14:38:25.791Z,2.19
2023-03-12T14:41:29.938Z,2.21
2023-03-12T14:44:32.723Z,2.24
2023-03-12T14:47:39.656Z,2.28
2023-03-12T14:50:41.464Z,2.31
2023-03-12T14:53:45.249Z,2.34
2023-03-12T14:56:47.297Z,2.37
2023-03-12T14:59:52.128Z,2.39
2023-03-12T15:02:56.036Z,2.41
2023-03-12T15:05:58.155Z,2.43
2023-03-12T15:09:04.338Z,2.44
2023-03-12T15:12:07.933Z,2.47
2023-03-12T15:15:17.178Z,2.52
2023-03-12T15:18:20.925Z,2.56
2023-03-12T15:21:23.266Z,2.58
2023-03-12T15:24:28.294Z,2.65
2023-03-12T15:27:31.669Z,2.72
2023-03-12T15:30:35.165Z,2.88
2023-03-12T15:33:37.375Z,2.96
2023-03-12T15:36:45.875Z,3.15
2023-03-12T15:39:49.818Z,3.27
2023-03-12T15:42:54.772Z,3.37
2023-03-12T15:45:59.145Z,3.51
2023-03-12T15:49:01.172Z,3.48
2023-03-12T15:52:08.024Z,3.49
2023-03-12T15:55:22.504Z,3.64
2023-03-12T15:58:25.556Z,3.74
2023-03-12T16:01:28.314Z,3.95
2023-03-12T16:04:30.552Z,4.02
2023-03-12T16:07:40.847Z,3.98
2023-03-12T16:10:44.862Z,4.03
2023-03-12T16:13:51.111Z,4.26
2023-03-12T16:16:53.650Z,4.32
2023-03-12T16:19:56.355Z,4.39
2023-03-12T16:22:58.206Z,4.47
2023-03-12T16:26:04.387Z,4.72
2023-03-12T16:29:14.501Z,4.68
2023-03-12T16:32:17.321Z,4.75
2023-03-12T16:35:20.122Z,4.90
2023-03-12T16:38:22.866Z,5.06
2023-03-12T16:41:28.557Z,5.09
2023-03-12T16:44:32.368Z,5.14
2023-03-12T16:47:34.256Z,5.20
2023-03-12T16:50:35.980Z,5.22
2023-03-12T16:53:38.745Z,5.42
2023-03-12T16:56:46.660Z,5.54
2023-03-12T16:59:52.879Z,5.60
2023-03-12T17:02:59.234Z,5.58
2023-03-12T17:06:01.156Z,5.62
2023-03-12T17:09:03.214Z,5.75
2023-03-12T17:12:06.567Z,5.83
2023-03-12T17:15:13.169Z,5.86
2023-03-12T17:18:14.927Z,5.94
2023-03-12T17:21:17.298Z,6.01
2023-03-12T17:24:19.270Z,6.01
2023-03-12T17:27:23.408Z,5.99
2023-03-12T17:30:25.718Z,6.00
2023-03-12T17:33:27.912Z,6.06
2023-03-12T17:36:30.801Z,6.01
2023-03-12T17:39:39.099Z,6.05
2023-03-12T17:42:42.662Z,6.07
2023-03-12T17:45:46.689Z,6.05
2023-03-12T17:48:52.614Z,6.03
2023-03-12T17:51:54.635Z,6.03
2023-03-12T17:54:56.688Z,6.03
2023-03-12T17:58:00.140Z,6.06
2023-03-12T18:01:02.090Z,6.12
2023-03-12T18:04:03.908Z,6.08
2023-03-12T18:07:05.952Z,6.04
2023-03-12T18:10:11.314Z,6.10
2023-03-12T18:13:17.444Z,6.06
2023-03-12T18:16:19.698Z,6.08
2023-03-12T18:19:21.903Z,6.12
2023-03-12T18:22:24.711Z,6.20
2023-03-12T18:25:26.668Z,6.16
2023-03-12T18:28:30.265Z,6.27
2023-03-12T18:31:32.709Z,6.29
2023-03-12T18:34:37.402Z,6.30
2023-03-12T18:37:39.543Z,6.33
2023-03-12T18:40:41.657Z,6.33
2023-03-12T18:43:44.954Z,6.31
2023-03-12T18:46:46.902Z,6.36
2023-03-12T18:49:53.073Z,6.38
2023-03-12T18:52:55.298Z,6.37
2023-03-12T18:55:59.143Z,6.34
2023-03-12T18:59:03.545Z,6.32
2023-03-12T19:02:05.360Z,6.28
2023-03-12T19:05:08.308Z,6.30
2023-03-12T19:08:10.293Z,6.35
2023-03-12T19:11:13.459Z,6.38
2023-03-12T19:14:16.686Z,6.43
2023-03-12T19:17:18.790Z,6.52
2023-03-12T19:20:21.694Z,6.52
2023-03-12T19:23:24.219Z,6.56
2023-03-12T19:26:26.016Z,6.52
2023-03-12T19:29:31.633Z,6.47
2023-03-12T19:32:43.344Z,6.44
2023-03-12T19:35:46.591Z,6.52
2023-03-12T19:38:48.723Z,6.57
2023-03-12T19:41:50.765Z,6.55
2023-03-12T19:44:54.270Z,6.63
2023-03-12T19:47:56.226Z,6.68
2023-03-12T19:51:04.549Z,6.73
2023-03-12T19:54:06.504Z,6.75
2023-03-12T19:57:08.619Z,6.78
2023-03-12T20:00:12.967Z,6.66
2023-03-12T20:03:14.887Z,6.70
2023-03-12T20:06:17.122Z,6.77
2023-03-12T20:09:19.124Z,6.77
2023-03-12T20:12:22.461Z,6.76
2023-03-12T20:15:26.420Z,6.83
2023-03-12T20:18:28.338Z,6.78
2023-03-12T20:21:30.792Z,6.71
2023-03-12T20:24:32.841Z,6.80
2023-03-12T20:27:35.226Z,6.92
2023-03-12T20:30:41.525Z,6.97
2023-03-12T20:33:43.358Z,6.92
2023-03-12T20:36:45.210Z,6.92
2023-03-12T20:39:47.027Z,6.91
2023-03-12T20:42:49.796Z,6.95
2023-03-12T20:45:54.383Z,6.96
2023-03-12T20:48:56.840Z,7.05
2023-03-12T20:51:58.715Z,7.01
2023-03-12T20:55:00.657Z,7.04
2023-03-12T20:58:02.612Z,7.00
2023-03-12T21:01:05.924Z,6.99
2023-03-12T21:04:07.965Z,7.05
2023-03-12T21:07:09.942Z,7.10
2023-03-12T21:10:13.548Z,7.08
2023-03-12T21:13:15.632Z,7.18
2023-03-12T21:16:18.774Z,7.17
2023-03-12T21:19:20.942Z,7.21
2023-03-12T21:22:22.860Z,7.20
2023-03-12T21:25:24.511Z,7.16
2023-03-12T21:28:26.330Z,7.16
2023-03-12T21:31:29.736Z,7.24
2023-03-12T21:34:32.840Z,7.18
2023-03-12T21:37:34.879Z,7.15
2023-03-12T21:40:37.082Z,7.12
2023-03-12T21:43:40.393Z,7.19
2023-03-12T21:46:43.717Z,7.14
2023-03-12T21:49:46.382Z,7.21
2023-03-12T21:52:49.718Z,7.17
2023-03-12T21:55:55.695Z,7.14
2023-03-12T21:58:57.845Z,7.15
2023-03-12T22:02:01.199Z,7.21
2023-03-12T22:05:03.003Z,7.23
2023-03-12T22:08:06.703Z,7.23
2023-03-12T22:11:09.758Z,7.26
2023-03-12T22:14:11.950Z,7.36
2023-03-12T22:17:15.998Z,7.29
2023-03-12T22:20:18.451Z,7.26
2023-03-12T22:23:20.564Z,7.24
2023-03-12T22:26:23.648Z,7.29
2023-03-12T22:29:25.563Z,7.30
2023-03-12T22:32:29.466Z,7.34
2023-03-12T22:35:31.313Z,7.29
2023-03-12T22:38:33.290Z,7.25
2023-03-12T22:41:35.105Z,7.17
2023-03-12T22:44:38.784Z,7.24
2023-03-12T22:47:51.060Z,7.25
2023-03-12T22:50:54.728Z,7.25
2023-03-12T22:53:56.865Z,7.27
2023-03-12T22:56:58.618Z,7.28
2023-03-12T23:00:00.198Z,7.30
2023-03-12T23:03:05.954Z,7.32
2023-03-12T23:06:08.907Z,7.30
2023-03-12T23:09:14.216Z,7.32
2023-03-12T23:12:16.155Z,7.37
2023-03-12T23:15:17.994Z,7.41
2023-03-12T23:18:21.549Z,7.38
2023-03-12T23:21:24.007Z,7.32
2023-03-12T23:24:25.839Z,7.36
2023-03-12T23:27:28.642Z,7.39
2023-03-12T23:30:30.899Z,7.41
2023-03-12T23:33:38.293Z,7.42
2023-03-12T23:36:40.329Z,7.47
2023-03-12T23:39:54.001Z,7.49
2023-03-12T23:42:58.159Z,7.49
2023-03-12T23:46:02.021Z,7.51
2023-03-12T23:49:06.262Z,7.50
2023-03-12T23:52:08.147Z,7.47
2023-03-12T23:55:10.090Z,7.43
2023-03-12T23:58:11.970Z,7.41
